createdAt,value
2018-09-08T00:02:11.413Z,86.56
2018-09-08T00:04:39.650Z,87.45
2018-09-08T00:07:13.217Z,87.20
2018-09-08T00:09:41.473Z,88.17
2018-09-08T00:12:09.778Z,86.74
2018-09-08T00:14:37.197Z,86.66
2018-09-08T00:17:10.702Z,86.15
2018-09-08T00:19:44.365Z,85.96
2018-09-08T00:22:18.065Z,86.87
2018-09-08T00:24:51.653Z,87.44
2018-09-08T00:27:27.313Z,87.96
2018-09-08T00:29:55.629Z,87.46
2018-09-08T00:32:23.963Z,86.88
2018-09-08T00:34:52.311Z,86.94
2018-09-08T00:37:20.749Z,86.82
2018-09-08T00:39:50.915Z,86.46
2018-09-08T00:42:19.380Z,86.70
2018-09-08T00:44:47.756Z,86.57
2018-09-08T00:47:16.250Z,86.65
2018-09-08T00:49:44.561Z,86.17
2018-09-08T00:52:12.776Z,86.85
2018-09-08T00:54:41.071Z,86.37
2018-09-08T00:57:10.360Z,86.89
2018-09-08T00:59:38.612Z,87.14
2018-09-08T01:02:06.884Z,86.91
2018-09-08T01:04:37.286Z,86.49
2018-09-08T01:07:09.502Z,86.83
2018-09-08T01:09:37.856Z,86.71
2018-09-08T01:12:06.227Z,86.94
2018-09-08T01:14:34.514Z,86.98
2018-09-08T01:17:02.751Z,87.54
2018-09-08T01:19:31.024Z,87.38
2018-09-08T01:22:05.795Z,86.69
2018-09-08T01:24:34.075Z,87.09
2018-09-08T01:27:02.352Z,87.85
2018-09-08T01:29:30.662Z,88.15
2018-09-08T01:31:58.948Z,88.27
2018-09-08T01:34:27.209Z,86.95
2018-09-08T01:36:55.526Z,87.37
2018-09-08T01:39:23.833Z,87.32
2018-09-08T01:41:52.276Z,87.84
2018-09-08T01:44:20.566Z,87.33
2018-09-08T01:46:48.822Z,88.30
2018-09-08T01:49:17.072Z,88.14
2018-09-08T01:51:45.383Z,88.07
2018-09-08T01:54:13.620Z,88.36
2018-09-08T01:56:41.892Z,87.99
2018-09-08T01:59:10.150Z,87.71
2018-09-08T02:01:38.425Z,87.35
2018-09-08T02:04:06.693Z,86.81
2018-09-08T02:06:35.029Z,87.57
2018-09-08T02:09:03.352Z,88.47
2018-09-08T02:11:31.689Z,88.53
2018-09-08T02:13:59.922Z,88.21
2018-09-08T02:16:28.232Z,88.94
2018-09-08T02:18:56.552Z,87.92
2018-09-08T02:21:24.936Z,88.83
2018-09-08T02:23:53.291Z,88.61
2018-09-08T02:26:21.568Z,87.48
2018-09-08T02:28:49.836Z,87.59
2018-09-08T02:31:18.125Z,88.12
2018-09-08T02:33:46.413Z,88.09
2018-09-08T02:36:14.852Z,88.23
2018-09-08T02:38:43.156Z,89.31
2018-09-08T02:41:11.452Z,88.39
2018-09-08T02:43:39.718Z,89.14
2018-09-08T02:46:08.044Z,89.82
2018-09-08T02:48:36.281Z,89.41
2018-09-08T02:51:03.490Z,89.29
2018-09-08T02:53:30.682Z,89.09
2018-09-08T02:55:57.920Z,88.87
2018-09-08T02:58:25.095Z,88.19
2018-09-08T03:00:52.266Z,89.15
2018-09-08T03:03:19.469Z,89.21
2018-09-08T03:05:46.665Z,89.53
2018-09-08T03:08:13.852Z,89.30
2018-09-08T03:10:41.174Z,88.50
2018-09-08T03:13:08.354Z,86.54
2018-09-08T03:15:35.529Z,86.53
2018-09-08T03:18:02.747Z,85.95
2018-09-08T03:20:29.898Z,86.08
2018-09-08T03:22:57.121Z,85.80
2018-09-08T03:25:24.299Z,85.60
2018-09-08T03:27:51.515Z,85.00
2018-09-08T03:30:35.670Z,85.42
2018-09-08T03:33:02.954Z,85.50
2018-09-08T03:35:30.202Z,86.30
2018-09-08T03:37:57.397Z,85.46
2018-09-08T03:40:24.630Z,83.81
2018-09-08T03:42:51.818Z,82.15
2018-09-08T03:45:19.039Z,82.29
2018-09-08T03:47:46.396Z,81.56
2018-09-08T03:50:13.583Z,81.43
2018-09-08T03:52:40.862Z,82.12
2018-09-08T03:55:08.192Z,82.83
2018-09-08T03:57:35.510Z,83.11
2018-09-08T04:00:02.700Z,84.10
2018-09-08T04:02:30.743Z,85.26
2018-09-08T04:04:59.065Z,85.86
2018-09-08T04:07:27.383Z,85.65
2018-09-08T04:09:55.837Z,85.88
2018-09-08T04:12:24.264Z,86.08
2018-09-08T04:14:52.606Z,86.08
2018-09-08T04:17:20.970Z,85.95
2018-09-08T04:19:49.302Z,85.66
2018-09-08T04:22:21.759Z,85.17
2018-09-08T04:24:50.104Z,84.81
2018-09-08T04:27:18.407Z,84.92
2018-09-08T04:29:46.758Z,83.67
2018-09-08T04:32:15.122Z,83.39
2018-09-08T04:34:43.423Z,83.44
2018-09-08T04:37:11.806Z,82.96
2018-09-08T04:39:40.146Z,83.62
2018-09-08T04:42:08.434Z,82.90
2018-09-08T04:44:36.779Z,83.90
2018-09-08T04:47:05.207Z,82.25
2018-09-08T04:49:33.537Z,79.97
2018-09-08T04:52:02.040Z,78.22
2018-09-08T04:54:30.402Z,78.48
2018-09-08T04:56:59.506Z,79.03
2018-09-08T04:59:27.935Z,79.53
2018-09-08T05:01:56.293Z,79.84
2018-09-08T05:04:24.669Z,80.49
2018-09-08T05:06:53.065Z,79.74
2018-09-08T05:09:21.476Z,78.50
2018-09-08T05:11:49.785Z,78.68
2018-09-08T05:14:18.180Z,78.43
2018-09-08T05:16:46.504Z,78.05
2018-09-08T05:19:14.846Z,78.35
2018-09-08T05:21:43.182Z,78.53
2018-09-08T05:24:11.519Z,78.09
2018-09-08T05:26:39.921Z,77.26
2018-09-08T05:29:08.278Z,77.30
2018-09-08T05:31:36.785Z,77.86
2018-09-08T05:34:05.168Z,77.43
2018-09-08T05:36:33.505Z,76.88
2018-09-08T05:39:01.808Z,76.30
2018-09-08T05:41:30.146Z,76.57
2018-09-08T05:43:58.502Z,76.30
2018-09-08T05:46:26.850Z,77.39
2018-09-08T05:48:55.272Z,76.70
2018-09-08T05:51:23.535Z,77.17
2018-09-08T05:53:51.849Z,76.96
2018-09-08T05:56:20.182Z,76.77
2018-09-08T05:58:48.543Z,75.74
2018-09-08T06:01:17.168Z,76.26
2018-09-08T06:03:45.506Z,76.05
2018-09-08T06:06:13.860Z,76.18
2018-09-08T06:08:42.225Z,76.22
2018-09-08T06:11:10.547Z,76.01
2018-09-08T06:13:38.881Z,75.02
2018-09-08T06:16:07.189Z,75.91
2018-09-08T06:18:35.490Z,75.38
2018-09-08T06:21:03.791Z,74.38
2018-09-08T06:23:32.138Z,74.54
2018-09-08T06:26:00.598Z,74.07
2018-09-08T06:28:29.005Z,74.28
2018-09-08T06:30:57.326Z,74.38
2018-09-08T06:33:25.717Z,74.59
2018-09-08T06:35:53.997Z,73.74
2018-09-08T06:38:22.495Z,73.67
2018-09-08T06:40:52.681Z,72.45
2018-09-08T06:43:21.567Z,72.26
2018-09-08T06:45:50.671Z,72.38
2018-09-08T06:48:19.467Z,72.64
2018-09-08T06:50:47.886Z,71.92
2018-09-08T06:53:16.251Z,71.39
2018-09-08T06:55:44.794Z,71.40
2018-09-08T06:58:13.183Z,70.25
2018-09-08T07:00:48.505Z,71.13
2018-09-08T07:03:16.982Z,69.89
2018-09-08T07:05:45.702Z,69.44
2018-09-08T07:08:14.271Z,69.75
2018-09-08T07:10:43.187Z,70.46
2018-09-08T07:13:11.838Z,69.33
2018-09-08T07:15:40.779Z,68.56
2018-09-08T07:18:09.174Z,67.34
2018-09-08T07:20:38.098Z,68.79
2018-09-08T07:23:06.578Z,67.55
2018-09-08T07:25:35.092Z,67.40
2018-09-08T07:28:03.657Z,67.43
2018-09-08T07:30:32.238Z,67.75
2018-09-08T07:33:00.591Z,67.91
2018-09-08T07:35:29.182Z,65.27
2018-09-08T07:37:57.854Z,66.86
2018-09-08T07:40:26.382Z,66.46
2018-09-08T07:42:55.353Z,66.97
2018-09-08T07:45:23.919Z,66.97
2018-09-08T07:47:52.453Z,66.94
2018-09-08T07:50:21.072Z,67.34
2018-09-08T07:52:49.717Z,66.85
2018-09-08T07:55:18.398Z,65.36
2018-09-08T07:57:47.161Z,67.08
2018-09-08T08:00:16.503Z,65.79
2018-09-08T08:02:45.653Z,65.87
2018-09-08T08:05:14.356Z,67.02
2018-09-08T08:07:43.754Z,66.47
2018-09-08T08:10:12.233Z,65.47
2018-09-08T08:12:41.327Z,64.19
2018-09-08T08:15:10.018Z,63.76
2018-09-08T08:17:38.860Z,63.35
2018-09-08T08:20:07.773Z,64.32
2018-09-08T08:24:00.506Z,64.38
2018-09-08T08:26:29.178Z,63.93
2018-09-08T08:28:57.846Z,63.66
2018-09-08T08:31:26.617Z,64.22
2018-09-08T08:33:55.280Z,64.24
2018-09-08T08:36:23.997Z,62.89
2018-09-08T08:38:53.772Z,63.38
2018-09-08T08:41:22.715Z,61.71
2018-09-08T08:43:51.086Z,62.81
2018-09-08T08:46:20.564Z,62.95
2018-09-08T08:48:49.208Z,63.17
2018-09-08T08:51:28.978Z,63.47
2018-09-08T08:54:08.633Z,63.60
2018-09-08T08:56:37.088Z,62.82
2018-09-08T08:59:06.005Z,62.14
2018-09-08T09:01:34.360Z,63.20
2018-09-08T09:04:02.775Z,62.31
2018-09-08T09:06:32.440Z,62.77
2018-09-08T09:09:00.762Z,61.28
2018-09-08T09:11:29.263Z,61.15
2018-09-08T09:13:57.743Z,59.22
2018-09-08T09:16:26.150Z,61.16
2018-09-08T09:19:05.862Z,59.67
2018-09-08T09:21:45.904Z,59.70
2018-09-08T09:24:26.267Z,60.44
2018-09-08T09:26:54.675Z,59.33
2018-09-08T09:29:23.224Z,59.71
2018-09-08T09:31:51.576Z,58.72
2018-09-08T09:34:20.213Z,59.34
2018-09-08T09:36:48.906Z,57.25
2018-09-08T09:39:17.323Z,57.00
2018-09-08T09:41:45.964Z,57.06
2018-09-08T09:44:15.195Z,57.22
2018-09-08T09:46:43.734Z,53.74
2018-09-08T09:49:12.030Z,56.58
2018-09-08T09:51:40.664Z,56.85
2018-09-08T09:54:08.973Z,57.13
2018-09-08T09:56:37.473Z,56.57
2018-09-08T09:59:05.980Z,52.70
2018-09-08T10:01:39.410Z,52.88
2018-09-08T10:04:07.810Z,53.61
2018-09-08T10:06:36.461Z,53.49
2018-09-08T10:09:06.787Z,52.92
2018-09-08T10:11:35.339Z,55.01
2018-09-08T10:14:03.631Z,53.58
2018-09-08T10:16:31.993Z,52.55
2018-09-08T10:19:00.439Z,52.42
2018-09-08T10:21:29.314Z,52.11
2018-09-08T10:24:05.149Z,52.26
2018-09-08T10:26:25.975Z,53.75
2018-09-08T10:28:54.374Z,52.86
2018-09-08T10:31:22.836Z,51.97
2018-09-08T10:33:51.148Z,50.64
2018-09-08T10:36:19.598Z,48.64
2018-09-08T10:38:48.409Z,50.64
2018-09-08T10:41:18.260Z,52.72
2018-09-08T10:43:47.208Z,50.58
2018-09-08T10:46:15.530Z,50.83
2018-09-08T10:48:43.838Z,50.05
2018-09-08T10:52:25.616Z,48.30
2018-09-08T10:54:55.194Z,47.76
2018-09-08T10:57:23.678Z,50.14
2018-09-08T10:59:52.031Z,47.89
2018-09-08T11:02:21.321Z,48.35
2018-09-08T11:04:49.314Z,47.23
2018-09-08T11:07:17.690Z,46.86
2018-09-08T11:09:46.074Z,46.08
2018-09-08T11:12:14.407Z,45.80
2018-09-08T11:14:42.973Z,46.43
2018-09-08T11:17:11.299Z,46.37
2018-09-08T11:19:39.855Z,44.18
2018-09-08T11:22:08.367Z,47.17
2018-09-08T11:24:38.246Z,45.69
2018-09-08T11:27:08.028Z,45.60
2018-09-08T11:29:36.431Z,46.73
2018-09-08T11:32:04.756Z,45.85
2018-09-08T11:34:33.185Z,43.39
2018-09-08T11:37:01.722Z,47.26
2018-09-08T11:39:30.362Z,46.66
2018-09-08T11:41:58.707Z,46.30
2018-09-08T11:44:27.305Z,45.64
2018-09-08T11:46:55.593Z,44.31
2018-09-08T11:49:23.913Z,45.92
2018-09-08T11:51:52.479Z,44.37
2018-09-08T11:54:20.821Z,43.63
2018-09-08T11:56:49.217Z,43.41
2018-09-08T11:59:17.606Z,45.33
2018-09-08T12:01:45.917Z,43.73
2018-09-08T12:04:14.627Z,43.21
2018-09-08T12:06:43.129Z,44.79
2018-09-08T12:09:12.586Z,45.72
2018-09-08T12:11:40.929Z,44.67
2018-09-08T12:14:10.365Z,42.89
2018-09-08T12:16:38.971Z,43.60
2018-09-08T12:19:07.367Z,44.16
2018-09-08T12:21:35.815Z,45.19
2018-09-08T12:24:05.258Z,42.69
2018-09-08T12:26:33.690Z,44.19
2018-09-08T12:29:02.480Z,44.10
2018-09-08T12:31:31.034Z,45.74
2018-09-08T12:34:00.330Z,45.41
2018-09-08T12:36:29.774Z,46.40
2018-09-08T12:38:58.665Z,44.57
2018-09-08T12:41:27.238Z,44.12
2018-09-08T12:43:55.819Z,44.88
2018-09-08T12:46:26.600Z,43.06
2018-09-08T12:49:04.068Z,44.30
2018-09-08T12:51:32.554Z,43.94
2018-09-08T12:54:01.368Z,42.05
2018-09-08T12:56:30.719Z,42.82
2018-09-08T12:59:00.363Z,44.22
2018-09-08T13:01:28.887Z,45.35
2018-09-08T13:03:57.928Z,43.32
2018-09-08T13:06:27.450Z,42.96
2018-09-08T13:08:55.855Z,41.48
2018-09-08T13:11:24.287Z,41.19
2018-09-08T13:13:52.870Z,42.84
2018-09-08T13:16:21.406Z,41.29
2018-09-08T13:18:50.382Z,41.28
2018-09-08T13:21:18.923Z,39.63
2018-09-08T13:23:50.310Z,42.72
2018-09-08T13:26:18.758Z,41.82
2018-09-08T13:28:47.474Z,40.59
2018-09-08T13:31:15.874Z,37.85
2018-09-08T13:33:44.494Z,40.08
2018-09-08T13:36:13.174Z,38.43
2018-09-08T13:38:41.461Z,38.62
2018-09-08T13:41:09.791Z,38.26
2018-09-08T13:43:38.118Z,38.71
2018-09-08T13:46:06.427Z,41.74
2018-09-08T13:48:34.859Z,41.96
2018-09-08T13:51:03.240Z,39.74
2018-09-08T13:53:31.998Z,39.41
2018-09-08T13:56:00.364Z,40.88
2018-09-08T13:58:28.686Z,38.18
2018-09-08T14:00:56.976Z,37.07
2018-09-08T14:03:25.372Z,38.21
2018-09-08T14:05:53.794Z,38.19
2018-09-08T14:08:22.100Z,38.42
2018-09-08T14:10:50.527Z,40.46
2018-09-08T14:13:19.316Z,39.76
2018-09-08T14:15:47.762Z,39.37
2018-09-08T14:18:16.138Z,41.69
2018-09-08T14:20:44.464Z,39.69
2018-09-08T14:23:13.003Z,39.43
2018-09-08T14:25:41.733Z,37.27
2018-09-08T14:28:10.082Z,38.80
2018-09-08T14:30:39.443Z,39.65
2018-09-08T14:33:07.748Z,38.32
2018-09-08T14:35:37.018Z,38.34
2018-09-08T14:38:05.491Z,37.84
2018-09-08T14:40:33.795Z,36.52
2018-09-08T14:43:02.119Z,37.73
2018-09-08T14:45:30.478Z,39.70
2018-09-08T14:47:58.755Z,41.66
2018-09-08T14:50:27.094Z,39.26
2018-09-08T14:52:55.477Z,39.40
2018-09-08T14:55:24.072Z,39.38
2018-09-08T14:57:52.691Z,40.57
2018-09-08T15:00:21.071Z,38.04
2018-09-08T15:02:49.675Z,40.17
2018-09-08T15:05:17.983Z,40.19
2018-09-08T15:07:46.250Z,39.46
2018-09-08T15:10:14.598Z,40.38
2018-09-08T15:12:44.264Z,39.51
2018-09-08T15:15:12.589Z,39.55
2018-09-08T15:17:41.896Z,41.00
2018-09-08T15:20:10.284Z,42.17
2018-09-08T15:22:38.679Z,41.06
2018-09-08T15:25:07.088Z,40.71
2018-09-08T15:27:35.536Z,40.35
2018-09-08T15:30:03.858Z,40.90
2018-09-08T15:32:32.187Z,41.58
2018-09-08T15:35:00.477Z,41.76
2018-09-08T15:37:28.988Z,42.73
2018-09-08T15:39:57.323Z,43.12
2018-09-08T15:42:25.634Z,42.48
2018-09-08T15:44:53.921Z,42.73
2018-09-08T15:47:22.402Z,42.75
2018-09-08T15:49:50.893Z,42.03
2018-09-08T15:52:19.202Z,40.97
2018-09-08T15:54:47.641Z,42.47
2018-09-08T15:57:16.106Z,43.57
2018-09-08T15:59:44.449Z,42.92
2018-09-08T16:02:12.960Z,44.26
2018-09-08T16:04:41.244Z,43.35
2018-09-08T16:07:09.561Z,43.57
2018-09-08T16:09:37.835Z,43.92
2018-09-08T16:12:06.177Z,44.30
2018-09-08T16:14:34.511Z,44.01
2018-09-08T16:17:03.053Z,44.30
2018-09-08T16:19:31.742Z,44.32
2018-09-08T16:22:00.213Z,42.49
2018-09-08T16:24:28.563Z,42.48
2018-09-08T16:26:57.950Z,42.99
2018-09-08T16:29:26.283Z,44.07
2018-09-08T16:31:55.011Z,44.20
2018-09-08T16:34:23.295Z,44.37
2018-09-08T16:36:51.856Z,43.88
2018-09-08T16:39:20.208Z,44.42
2018-09-08T16:41:48.583Z,46.00
2018-09-08T16:44:16.930Z,45.26
2018-09-08T16:46:45.242Z,44.90
2018-09-08T16:49:13.626Z,44.32
2018-09-08T16:51:41.990Z,45.79
2018-09-08T16:54:10.422Z,44.25
2018-09-08T16:56:38.837Z,45.36
2018-09-08T16:59:07.324Z,46.60
2018-09-08T17:01:35.638Z,48.18
2018-09-08T17:04:04.038Z,48.75
2018-09-08T17:06:32.381Z,50.07
2018-09-08T17:09:00.738Z,49.60
2018-09-08T17:11:29.221Z,50.07
2018-09-08T17:13:57.733Z,50.87
2018-09-08T17:16:26.340Z,52.23
2018-09-08T17:18:54.791Z,51.78
2018-09-08T17:21:23.320Z,53.28
2018-09-08T17:23:52.116Z,52.24
2018-09-08T17:26:21.133Z,52.83
2018-09-08T17:28:49.965Z,52.88
2018-09-08T17:31:18.447Z,54.26
2018-09-08T17:33:46.969Z,55.82
2018-09-08T17:36:15.501Z,55.21
2018-09-08T17:38:44.090Z,56.18
2018-09-08T17:41:12.531Z,56.52
2018-09-08T17:43:41.168Z,56.61
2018-09-08T17:46:09.655Z,57.20
2018-09-08T17:48:38.124Z,56.62
2018-09-08T17:51:06.922Z,56.65
2018-09-08T17:53:35.613Z,55.89
2018-09-08T17:56:04.260Z,56.47
2018-09-08T17:58:32.910Z,58.30
2018-09-08T18:01:01.463Z,56.67
2018-09-08T18:03:30.039Z,56.96
2018-09-08T18:05:58.690Z,57.71
2018-09-08T18:08:27.793Z,56.14
2018-09-08T18:10:56.812Z,58.10
2018-09-08T18:13:26.312Z,59.26
2018-09-08T18:15:54.970Z,59.64
2018-09-08T18:18:23.853Z,59.39
2018-09-08T18:20:52.818Z,59.67
2018-09-08T18:23:21.542Z,60.78
2018-09-08T18:25:50.147Z,60.87
2018-09-08T18:28:18.592Z,61.63
2018-09-08T18:30:47.004Z,61.25
2018-09-08T18:33:15.687Z,61.33
2018-09-08T18:35:44.261Z,61.15
2018-09-08T18:38:12.794Z,60.85
2018-09-08T18:40:41.397Z,60.72
2018-09-08T18:43:09.951Z,60.25
2018-09-08T18:45:38.460Z,61.10
2018-09-08T18:48:07.263Z,61.93
2018-09-08T18:50:35.769Z,62.57
2018-09-08T18:53:05.153Z,61.09
2018-09-08T18:55:33.675Z,61.50
2018-09-08T18:58:02.133Z,61.45
2018-09-08T19:00:31.135Z,60.83
2018-09-08T19:03:00.037Z,60.51
2018-09-08T19:05:29.481Z,59.92
2018-09-08T19:07:58.458Z,60.01
2018-09-08T19:10:26.945Z,60.31
2018-09-08T19:12:55.474Z,58.98
2018-09-08T19:15:23.994Z,60.54
2018-09-08T19:17:52.473Z,59.04
2018-09-08T19:20:26.341Z,59.99
2018-09-08T19:22:54.935Z,60.91
2018-09-08T19:25:23.641Z,61.11
2018-09-08T19:27:52.101Z,60.63
2018-09-08T19:30:20.953Z,60.72
2018-09-08T19:32:49.419Z,60.45
2018-09-08T19:35:23.385Z,57.99
2018-09-08T19:37:51.859Z,58.21
2018-09-08T19:40:25.592Z,59.50
2018-09-08T19:42:54.367Z,59.78
2018-09-08T19:45:22.944Z,59.17
2018-09-08T19:47:56.879Z,58.67
2018-09-08T19:50:25.640Z,59.22
2018-09-08T19:52:59.350Z,60.76
2018-09-08T19:55:27.812Z,60.78
2018-09-08T19:58:01.780Z,60.79
2018-09-08T20:00:30.178Z,60.33
2018-09-08T20:02:58.554Z,60.05
2018-09-08T20:05:27.367Z,60.31
2018-09-08T20:07:56.700Z,60.66
2018-09-08T20:10:25.850Z,60.72
2018-09-08T20:12:54.802Z,61.11
2018-09-08T20:15:23.777Z,61.69
2018-09-08T20:17:52.465Z,63.05
2018-09-08T20:20:21.034Z,63.13
2018-09-08T20:22:49.688Z,62.26
2018-09-08T20:25:18.294Z,61.88
2018-09-08T20:27:47.690Z,62.44
2018-09-08T20:30:31.592Z,63.03
2018-09-08T20:33:00.259Z,62.97
2018-09-08T20:35:28.619Z,64.03
2018-09-08T20:37:56.943Z,63.37
2018-09-08T20:40:25.534Z,63.12
2018-09-08T20:42:54.171Z,63.70
2018-09-08T20:45:22.763Z,64.93
2018-09-08T20:47:51.332Z,65.13
2018-09-08T20:50:19.918Z,64.89
2018-09-08T20:52:48.345Z,65.24
2018-09-08T20:55:16.803Z,66.08
2018-09-08T20:57:45.261Z,66.23
2018-09-08T21:00:13.738Z,66.13
2018-09-08T21:02:42.321Z,66.59
2018-09-08T21:05:10.937Z,66.64
2018-09-08T21:07:39.402Z,66.79
2018-09-08T21:10:07.979Z,65.89
2018-09-08T21:12:36.535Z,67.31
2018-09-08T21:15:05.326Z,68.33
2018-09-08T21:17:33.771Z,68.35
2018-09-08T21:20:02.308Z,67.87
2018-09-08T21:22:37.135Z,68.07
2018-09-08T21:26:34.926Z,68.35
2018-09-08T21:29:03.353Z,68.65
2018-09-08T21:31:31.831Z,68.62
2018-09-08T21:34:00.336Z,69.11
2018-09-08T21:36:28.822Z,69.28
2018-09-08T21:38:57.523Z,68.88
2018-09-08T21:41:26.112Z,68.00
2018-09-08T21:43:54.601Z,67.45
2018-09-08T21:46:23.133Z,68.49
2018-09-08T21:48:51.599Z,68.88
2018-09-08T21:51:20.041Z,69.86
2018-09-08T21:53:48.649Z,69.71
2018-09-08T21:56:17.178Z,70.06
2018-09-08T21:58:45.702Z,70.56
2018-09-08T22:01:19.567Z,70.76
2018-09-08T22:03:47.968Z,70.63
2018-09-08T22:06:16.350Z,70.57
2018-09-08T22:08:44.685Z,71.27
2018-09-08T22:11:13.086Z,70.47
2018-09-08T22:13:41.425Z,71.52
2018-09-08T22:16:09.816Z,71.98
2018-09-08T22:18:38.154Z,71.78
2018-09-08T22:21:06.522Z,72.18
2018-09-08T22:23:35.064Z,72.43
2018-09-08T22:26:03.440Z,72.45
2018-09-08T22:28:31.833Z,72.18
2018-09-08T22:31:00.418Z,72.42
2018-09-08T22:33:28.797Z,72.06
2018-09-08T22:35:57.204Z,71.12
2018-09-08T22:38:25.500Z,72.87
2018-09-08T22:40:53.851Z,72.90
2018-09-08T22:43:22.225Z,72.81
2018-09-08T22:45:50.814Z,73.03
2018-09-08T22:48:19.184Z,73.19
2018-09-08T22:50:47.520Z,72.97
2018-09-08T22:53:15.881Z,73.02
2018-09-08T22:55:44.265Z,72.83
2018-09-08T22:58:12.635Z,73.99
2018-09-08T23:00:41.135Z,74.27
2018-09-08T23:03:09.571Z,75.04
2018-09-08T23:05:37.946Z,75.12
2018-09-08T23:08:06.360Z,74.82
2018-09-08T23:10:34.696Z,74.13
2018-09-08T23:13:03.144Z,74.79
2018-09-08T23:15:31.664Z,74.10
2018-09-08T23:18:00.055Z,74.45
2018-09-08T23:20:28.578Z,74.70
2018-09-08T23:23:03.795Z,75.60
2018-09-08T23:25:32.192Z,75.55
2018-09-08T23:28:00.527Z,75.52
2018-09-08T23:30:28.979Z,75.55
2018-09-08T23:32:57.409Z,75.78
2018-09-08T23:35:25.775Z,76.87
2018-09-08T23:37:54.075Z,76.57
2018-09-08T23:40:22.471Z,76.26
2018-09-08T23:42:51.051Z,75.78
2018-09-08T23:45:19.440Z,76.08
2018-09-08T23:47:47.947Z,75.99
2018-09-08T23:50:16.298Z,76.09
2018-09-08T23:52:44.623Z,75.25
2018-09-08T23:55:12.970Z,75.76
2018-09-08T23:57:41.293Z,75.94
